Time;durP1;ratioP1;P1;durP2;ratioP2;P2;SDS_P1;SDS_P2;PMS_P1;PMS_P2;Temp;Humidity;BMP_temperature;BMP_pressure;BME280_temperature;BME280_humidity;BME280_pressure;Samples;Min_cycle;Max_cycle;Signal;HPM_P1;HPM_P2
2022/04/12 00:01:14;;;;;;;6.40;2.70;;;;;;;4.16;57.88;99140.55;109580;1273;22378;-60
2022/04/12 00:03:42;;;;;;;6.80;3.00;;;;;;;4.15;57.95;99143.92;109501;1274;22432;-59
2022/04/12 00:06:10;;;;;;;6.30;2.70;;;;;;;4.14;58.12;99141.19;109504;1273;22413;-60
2022/04/12 00:08:39;;;;;;;5.00;2.40;;;;;;;4.13;57.76;99139.75;109534;1274;22385;-60
2022/04/12 00:11:07;;;;;;;5.50;2.40;;;;;;;4.13;58.00;99135.81;109593;1273;22395;-60
2022/04/12 00:13:36;;;;;;;5.30;2.50;;;;;;;4.12;58.06;99130.19;109530;1273;22501;-60
2022/04/12 00:16:24;;;;;;;7.50;3.30;;;;;;;4.10;58.41;99136.00;107330;1273;25510;-59
2022/04/12 00:19:04;;;;;;;9.70;2.90;;;;;;;4.08;58.47;99137.18;105225;1274;23970;-59
2022/04/12 00:21:34;;;;;;;6.60;2.80;;;;;;;4.06;58.57;99137.83;105146;1276;24278;-60
2022/04/12 00:24:23;;;;;;;8.20;2.90;;;;;;;4.04;58.64;99137.98;105223;1274;24227;-60
2022/04/12 00:26:52;;;;;;;7.80;2.70;;;;;;;4.03;58.71;99137.06;105273;1274;23976;-60
2022/04/12 00:29:20;;;;;;;7.70;2.50;;;;;;;4.01;58.96;99140.44;105181;1274;23974;-59
2022/04/12 00:31:49;;;;;;;5.20;2.60;;;;;;;3.99;59.06;99135.40;109444;1274;23408;-60
2022/04/12 00:34:17;;;;;;;5.90;2.80;;;;;;;3.96;59.20;99134.02;109528;1274;22456;-60
2022/04/12 00:36:46;;;;;;;7.30;3.20;;;;;;;3.94;59.24;99134.33;109594;1273;22831;-60
2022/04/12 00:39:14;;;;;;;9.50;3.20;;;;;;;3.91;59.22;99134.30;109539;1273;22430;-60
2022/04/12 00:41:43;;;;;;;7.40;3.00;;;;;;;3.87;59.38;99127.37;109525;1274;22268;-60
2022/04/12 00:44:14;;;;;;;5.30;2.80;;;;;;;3.88;59.49;99130.41;109531;1274;22384;-60
2022/04/12 00:46:42;;;;;;;11.40;2.70;;;;;;;3.87;59.44;99125.91;109490;1274;22452;-60
2022/04/12 00:49:10;;;;;;;5.20;2.90;;;;;;;3.86;59.81;99122.20;109535;1274;22471;-60
2022/04/12 00:51:58;;;;;;;4.90;2.60;;;;;;;3.84;59.91;99124.73;109566;1273;22408;-60
2022/04/12 00:54:28;;;;;;;8.10;2.60;;;;;;;3.83;59.74;99130.05;109516;1273;23152;-60
2022/04/12 00:56:56;;;;;;;9.40;2.90;;;;;;;3.82;59.92;99132.34;109514;1274;22249;-60
2022/04/12 00:59:25;;;;;;;7.20;3.10;;;;;;;3.82;59.83;99135.83;109381;1275;22508;-60
2022/04/12 01:01:53;;;;;;;5.70;2.80;;;;;;;3.82;59.86;99132.27;109533;1274;22253;-60
2022/04/12 01:04:22;;;;;;;10.20;3.20;;;;;;;3.81;59.94;99125.30;109515;1274;22421;-60
2022/04/12 01:06:50;;;;;;;7.20;3.50;;;;;;;3.80;59.98;99128.01;109541;1273;23079;-60
2022/04/12 01:09:18;;;;;;;8.50;3.00;;;;;;;3.80;60.15;99130.58;109488;1274;22383;-60
2022/04/12 01:11:48;;;;;;;6.30;2.90;;;;;;;3.79;60.14;99120.90;109623;1274;22380;-60
2022/04/12 01:14:16;;;;;;;9.80;3.50;;;;;;;3.77;60.01;99115.73;109553;1274;22372;-60
2022/04/12 01:16:44;;;;;;;7.70;2.90;;;;;;;3.75;60.13;99114.71;109506;1274;23202;-60
2022/04/12 01:19:12;;;;;;;5.90;2.60;;;;;;;3.75;60.23;99118.80;109493;1274;22429;-60
2022/04/12 01:21:51;;;;;;;6.90;2.80;;;;;;;3.74;60.36;99116.61;109556;1273;23130;-60
2022/04/12 01:24:19;;;;;;;5.60;2.70;;;;;;;3.73;60.46;99110.77;109620;1273;22541;-60
2022/04/12 01:26:49;;;;;;;9.10;2.80;;;;;;;3.71;60.55;99111.09;109548;1274;22604;-60
2022/04/12 01:29:17;;;;;;;9.10;2.90;;;;;;;3.70;60.51;99109.86;109380;1274;22416;-60
2022/04/12 01:31:46;;;;;;;5.60;2.60;;;;;;;3.70;60.52;99110.72;109540;1274;22377;-60
2022/04/12 01:34:14;;;;;;;10.00;3.00;;;;;;;3.69;60.52;99113.67;109536;1273;22419;-60
2022/04/12 01:36:43;;;;;;;7.00;2.60;;;;;;;3.69;60.61;99120.30;109526;1273;22420;-60
2022/04/12 01:39:12;;;;;;;8.20;2.90;;;;;;;3.68;60.82;99117.91;109562;1273;22455;-60
2022/04/12 01:41:40;;;;;;;6.10;2.60;;;;;;;3.67;60.66;99112.20;109536;1274;23380;-59
2022/04/12 01:44:09;;;;;;;6.70;2.90;;;;;;;3.65;60.92;99109.98;109539;1273;22651;-59
2022/04/12 01:46:38;;;;;;;5.20;2.60;;;;;;;3.62;61.00;99104.94;108640;1274;26160;-59
2022/04/12 01:49:06;;;;;;;8.10;2.90;;;;;;;3.61;60.83;99098.76;105270;1274;23972;-59
2022/04/12 01:51:35;;;;;;;9.90;3.00;;;;;;;3.59;60.99;99094.68;109393;1273;22985;-60
2022/04/12 01:54:03;;;;;;;8.70;2.90;;;;;;;3.58;61.25;99087.20;109526;1273;22417;-60
2022/04/12 01:56:33;;;;;;;6.20;2.50;;;;;;;3.55;61.17;99089.36;109558;1273;22412;-63
2022/04/12 01:59:02;;;;;;;8.40;2.80;;;;;;;3.52;61.44;99083.67;109521;1273;22534;-63
2022/04/12 02:01:31;;;;;;;6.80;2.80;;;;;;;3.50;61.39;99085.52;109520;1274;23444;-63
2022/04/12 02:03:59;;;;;;;5.50;2.50;;;;;;;3.48;61.58;99085.66;109525;1274;22530;-63
2022/04/12 02:06:27;;;;;;;9.20;2.80;;;;;;;3.47;61.57;99082.43;109481;1273;23555;-63
2022/04/12 02:08:55;;;;;;;6.50;2.70;;;;;;;3.46;61.58;99076.81;109553;1273;22478;-63
2022/04/12 02:11:24;;;;;;;5.00;2.30;;;;;;;3.45;61.72;99064.91;109625;1272;22397;-63
2022/04/12 02:13:53;;;;;;;11.20;3.50;;;;;;;3.44;61.70;99061.20;109571;1273;22543;-63
2022/04/12 02:16:23;;;;;;;5.20;2.70;;;;;;;3.41;61.66;99062.63;109555;1274;22422;-63
2022/04/12 02:18:51;;;;;;;5.80;2.80;;;;;;;3.40;61.97;99065.70;109528;1274;22399;-63
2022/04/12 02:21:39;;;;;;;7.20;2.90;;;;;;;3.40;61.92;99066.65;109530;1273;22415;-63
2022/04/12 02:24:07;;;;;;;6.90;2.90;;;;;;;3.38;61.87;99070.81;109536;1273;22447;-63
2022/04/12 02:26:35;;;;;;;8.70;2.80;;;;;;;3.37;61.87;99069.37;109496;1274;23298;-60
2022/04/12 02:29:03;;;;;;;7.30;2.80;;;;;;;3.36;62.08;99067.23;109560;1274;22441;-60
2022/04/12 02:31:42;;;;;;;7.70;2.70;;;;;;;3.34;62.00;99072.09;109561;1274;22365;-59
2022/04/12 02:34:12;;;;;;;7.30;3.00;;;;;;;3.33;62.13;99078.11;109542;1274;22503;-59
2022/04/12 02:36:40;;;;;;;5.90;3.00;;;;;;;3.32;62.05;99085.38;109529;1273;22305;-60
2022/04/12 02:39:07;;;;;;;9.50;2.80;;;;;;;3.32;62.29;99090.11;109553;1273;22461;-60
2022/04/12 02:41:36;;;;;;;6.40;2.40;;;;;;;3.30;62.21;99092.98;109558;1273;22410;-60
2022/04/12 02:44:04;;;;;;;6.60;2.40;;;;;;;3.30;62.31;99091.98;109527;1274;22422;-59
2022/04/12 02:46:33;;;;;;;7.60;2.40;;;;;;;3.28;62.34;99094.83;109555;1274;22485;-60
2022/04/12 02:49:01;;;;;;;6.70;2.50;;;;;;;3.26;62.29;99092.06;109537;1274;22574;-60
2022/04/12 02:51:29;;;;;;;6.00;2.30;;;;;;;3.25;62.49;99087.02;109470;1273;22384;-60
2022/04/12 02:53:58;;;;;;;4.00;2.00;;;;;;;3.23;62.46;99075.23;109551;1274;22393;-59
2022/04/12 02:56:26;;;;;;;8.70;2.60;;;;;;;3.22;62.33;99074.82;109560;1274;22435;-59
2022/04/12 02:58:54;;;;;;;7.60;2.70;;;;;;;3.21;62.40;99074.41;109566;1274;23196;-59
2022/04/12 03:01:22;;;;;;;4.90;2.30;;;;;;;3.19;62.44;99074.84;109555;1274;22421;-59
2022/04/12 03:03:51;;;;;;;5.40;2.20;;;;;;;3.18;62.32;99074.80;109535;1274;22406;-60
2022/04/12 03:06:20;;;;;;;6.10;2.80;;;;;;;3.17;62.43;99075.16;109520;1274;22467;-59
2022/04/12 03:09:07;;;;;;;;;;;;;;;3.14;62.45;99071.38;109556;1274;23238;-59
2022/04/12 03:11:36;;;;;;;5.60;2.40;;;;;;;3.12;62.51;99068.86;109552;1274;22306;-60
2022/04/12 03:14:23;;;;;;;6.30;3.00;;;;;;;3.10;62.54;99070.38;109552;1274;22417;-59
2022/04/12 03:16:51;;;;;;;6.90;2.60;;;;;;;3.08;62.42;99072.63;109541;1274;23530;-60
2022/04/12 03:19:39;;;;;;;;;;;;;;;3.07;62.39;99075.90;109555;1274;22457;-60
2022/04/12 03:22:08;;;;;;;8.30;3.00;;;;;;;3.06;62.47;99075.29;109517;1274;23094;-60
2022/04/12 03:24:45;;;;;;;9.80;3.50;;;;;;;3.06;62.53;99070.77;109548;1274;23160;-60
2022/04/12 03:27:14;;;;;;;6.60;3.80;;;;;;;3.06;62.43;99073.02;109534;1274;22514;-60
2022/04/12 03:29:41;;;;;;;9.00;3.40;;;;;;;3.05;62.49;99078.31;109557;1274;22419;-60
2022/04/12 03:32:10;;;;;;;5.70;2.40;;;;;;;3.04;62.40;99080.56;109512;1274;22474;-60
2022/04/12 03:34:41;;;;;;;6.30;2.50;;;;;;;3.04;62.34;99075.64;109523;1274;22415;-60
2022/04/12 03:37:09;;;;;;;7.20;2.50;;;;;;;3.02;62.36;99076.38;105884;1274;24111;-60
2022/04/12 03:39:38;;;;;;;6.20;2.70;;;;;;;3.01;62.32;99069.02;105248;1275;24401;-60
2022/04/12 03:42:11;;;;;;;10.50;2.90;;;;;;;3.01;62.23;99069.23;109494;1274;23328;-60
2022/04/12 03:44:41;;;;;;;9.40;3.10;;;;;;;3.01;62.32;99070.34;109512;1274;22394;-60
2022/04/12 03:47:09;;;;;;;8.00;2.90;;;;;;;3.01;62.09;99065.92;109550;1274;22400;-60
2022/04/12 03:49:37;;;;;;;6.00;2.50;;;;;;;3.00;62.09;99068.07;109528;1274;23355;-60
2022/04/12 03:52:05;;;;;;;3.60;2.30;;;;;;;3.00;62.31;99067.37;109510;1274;22496;-60
2022/04/12 03:54:34;;;;;;;4.90;2.00;;;;;;;3.02;62.09;99074.35;109547;1273;22405;-60
2022/04/12 03:57:03;;;;;;;13.60;2.60;;;;;;;3.02;62.25;99082.50;109539;1274;22403;-60
2022/04/12 04:02:21;;;;;;;7.90;2.00;;;;;;;3.05;61.95;99093.52;101973;1309;546082;-59
2022/04/12 04:04:50;;;;;;;12.00;3.00;;;;;;;3.05;61.77;99087.80;104337;1284;24436;-59
2022/04/12 04:07:18;;;;;;;6.10;2.50;;;;;;;3.06;61.71;99087.26;104876;1283;24954;-61
2022/04/12 04:09:46;;;;;;;5.50;2.20;;;;;;;3.07;61.83;99088.08;108593;1282;23249;-59
2022/04/12 04:12:14;;;;;;;7.20;2.70;;;;;;;3.08;61.83;99090.59;108689;1282;22402;-59
2022/04/12 04:14:53;;;;;;;9.10;3.00;;;;;;;3.08;61.65;99089.30;108572;1281;163979;-59
2022/04/12 04:17:22;;;;;;;6.80;2.40;;;;;;;3.09;61.75;99087.40;109052;1281;22415;-60
2022/04/12 04:19:50;;;;;;;8.70;2.90;;;;;;;3.10;61.70;99090.34;108764;1281;23294;-59
2022/04/12 04:22:18;;;;;;;5.20;2.30;;;;;;;3.11;61.72;99091.37;108934;1281;22424;-59
2022/04/12 04:24:47;;;;;;;6.60;2.50;;;;;;;3.12;61.62;99097.27;109023;1281;22487;-60
2022/04/12 04:27:16;;;;;;;5.30;2.40;;;;;;;3.14;61.54;99100.91;109010;1281;23469;-60
2022/04/12 04:29:44;;;;;;;8.60;3.00;;;;;;;3.15;61.48;99102.94;108969;1280;22445;-59
2022/04/12 04:32:12;;;;;;;11.10;3.20;;;;;;;3.17;61.47;99106.92;108981;1281;22404;-59
2022/04/12 04:34:40;;;;;;;10.10;4.10;;;;;;;3.17;61.56;99109.03;109800;1268;23458;-59
2022/04/12 04:37:08;;;;;;;10.60;3.70;;;;;;;3.19;61.55;99112.89;109743;1269;22343;-59
2022/04/12 04:39:36;;;;;;;8.00;3.50;;;;;;;3.20;61.48;99117.56;109808;1269;23482;-59
2022/04/12 04:42:06;;;;;;;8.70;4.10;;;;;;;3.20;61.46;99117.90;109756;1269;22361;-59
2022/04/12 04:44:35;;;;;;;10.10;3.90;;;;;;;3.23;61.31;99121.70;109707;1271;22448;-59
2022/04/12 04:47:03;;;;;;;7.50;3.50;;;;;;;3.24;61.35;99123.02;109749;1270;22395;-59
2022/04/12 04:49:32;;;;;;;8.70;3.80;;;;;;;3.26;61.60;99121.92;109778;1270;22571;-59
2022/04/12 04:52:00;;;;;;;5.60;2.60;;;;;;;3.28;61.29;99122.56;109666;1270;23674;-59
2022/04/12 04:54:28;;;;;;;7.20;2.80;;;;;;;3.30;61.44;99120.44;109726;1270;22440;-59
2022/04/12 04:56:56;;;;;;;6.40;2.50;;;;;;;3.34;61.22;99121.92;109703;1270;22361;-59
2022/04/12 04:59:24;;;;;;;4.50;2.30;;;;;;;3.36;61.25;99125.30;109696;1270;22549;-59
2022/04/12 05:01:55;;;;;;;6.90;2.20;;;;;;;3.39;61.39;99119.19;109697;1270;23099;-59
2022/04/12 05:04:23;;;;;;;6.90;2.80;;;;;;;3.42;61.24;99119.63;109727;1268;22254;-59
2022/04/12 05:06:52;;;;;;;9.50;3.40;;;;;;;3.45;60.85;99120.91;109728;1270;22420;-59
2022/04/12 05:09:20;;;;;;;13.00;4.30;;;;;;;3.48;60.65;99116.90;109779;1269;23235;-59
2022/04/12 05:11:49;;;;;;;5.30;2.70;;;;;;;3.51;60.48;99109.45;109811;1270;22392;-59
2022/04/12 05:14:18;;;;;;;6.80;2.60;;;;;;;3.54;60.65;99109.92;109760;1270;22543;-59
2022/04/12 05:16:46;;;;;;;5.10;2.50;;;;;;;3.58;60.57;99106.59;109775;1270;22988;-59
2022/04/12 05:19:14;;;;;;;5.90;2.40;;;;;;;3.61;60.38;99107.66;109735;1270;22565;-59
2022/04/12 05:22:02;;;;;;;6.80;3.20;;;;;;;3.64;60.32;99101.98;109711;1270;23571;-59
2022/04/12 05:24:30;;;;;;;7.30;2.50;;;;;;;3.68;60.56;99104.85;109782;1270;22509;-60
2022/04/12 05:26:58;;;;;;;4.50;2.20;;;;;;;3.72;59.92;99102.98;109772;1269;22413;-59
2022/04/12 05:29:26;;;;;;;10.00;2.40;;;;;;;3.75;59.86;99105.98;109782;1270;22268;-59
2022/04/12 05:31:54;;;;;;;5.60;2.30;;;;;;;3.78;59.79;99103.20;109768;1267;22426;-59
2022/04/12 05:34:22;;;;;;;6.10;2.30;;;;;;;3.82;60.03;99102.25;109728;1270;22418;-59
2022/04/12 05:36:50;;;;;;;8.80;2.60;;;;;;;3.86;59.78;99103.50;106622;1271;22556;-62
2022/04/12 05:39:23;;;;;;;10.50;2.60;;;;;;;3.91;59.75;99110.81;109772;1269;23253;-59
2022/04/12 05:41:51;;;;;;;8.00;2.90;;;;;;;3.96;59.47;99104.58;109675;1271;22382;-59
2022/04/12 05:44:19;;;;;;;7.60;2.00;;;;;;;4.01;59.49;99109.33;109717;1271;22504;-59
2022/04/12 05:46:49;;;;;;;9.90;2.80;;;;;;;4.06;59.22;99113.35;109775;1270;22222;-59
2022/04/12 05:49:17;;;;;;;7.30;2.60;;;;;;;4.11;58.99;99116.67;109731;1270;22469;-59
2022/04/12 05:51:46;;;;;;;9.70;3.20;;;;;;;4.15;58.50;99118.38;109735;1271;23494;-59
2022/04/12 05:54:14;;;;;;;10.70;2.70;;;;;;;4.20;58.72;99118.54;109750;1270;22409;-59
2022/04/12 05:56:42;;;;;;;5.80;2.50;;;;;;;4.25;58.69;99119.98;109771;1270;22359;-59
2022/04/12 05:59:11;;;;;;;4.40;2.10;;;;;;;4.30;58.46;99124.44;109757;1270;22487;-60
2022/04/12 06:01:39;;;;;;;8.00;2.50;;;;;;;4.33;58.45;99126.09;109701;1271;22421;-60
2022/04/12 06:04:07;;;;;;;8.80;3.10;;;;;;;4.38;58.57;99124.86;109752;1270;22620;-60
2022/04/12 06:06:50;;;;;;;4.90;2.30;;;;;;;4.43;58.47;99123.98;109785;1270;22362;-60
2022/04/12 06:09:19;;;;;;;6.50;2.60;;;;;;;4.48;58.15;99127.42;109755;1270;22397;-60
2022/04/12 06:12:02;;;;;;;8.40;2.60;;;;;;;4.53;57.87;99133.38;109771;1271;22315;-60
2022/04/12 06:14:30;;;;;;;8.00;3.30;;;;;;;4.57;58.10;99131.17;109778;1269;22400;-60
2022/04/12 06:17:18;;;;;;;9.40;3.20;;;;;;;4.61;57.75;99129.84;109784;1270;22456;-60
2022/04/12 06:19:48;;;;;;;7.90;2.40;;;;;;;4.64;57.38;99126.86;109754;1270;23191;-60
2022/04/12 06:22:16;;;;;;;8.60;2.80;;;;;;;4.67;57.74;99131.10;109704;1271;22447;-60
2022/04/12 06:24:44;;;;;;;7.10;2.80;;;;;;;4.70;57.84;99131.36;109758;1270;22405;-60
2022/04/12 06:27:13;;;;;;;7.20;2.10;;;;;;;4.75;57.85;99127.81;109780;1270;23169;-60
2022/04/12 06:29:41;;;;;;;6.40;2.20;;;;;;;4.78;57.51;99126.88;109773;1270;22500;-60
2022/04/12 06:32:09;;;;;;;5.40;2.50;;;;;;;4.83;57.52;99125.27;109760;1270;22268;-60
2022/04/12 06:34:37;;;;;;;5.50;2.40;;;;;;;4.87;57.52;99125.43;109722;1269;22520;-60
2022/04/12 06:37:05;;;;;;;7.50;2.50;;;;;;;4.90;57.34;99123.25;109695;1271;23301;-60
2022/04/12 06:39:34;;;;;;;7.00;2.60;;;;;;;4.94;57.32;99120.57;109737;1269;22391;-60
2022/04/12 06:42:05;;;;;;;12.10;2.70;;;;;;;4.96;57.13;99122.48;109780;1270;22415;-60
2022/04/12 06:44:34;;;;;;;9.60;3.30;;;;;;;4.99;57.04;99119.05;109756;1269;22380;-60
2022/04/12 06:47:03;;;;;;;5.10;1.90;;;;;;;5.03;57.26;99120.83;109696;1271;22418;-60
2022/04/12 06:49:46;;;;;;;6.10;2.80;;;;;;;5.07;57.13;99114.38;109756;1270;22430;-61
2022/04/12 06:52:14;;;;;;;8.60;2.80;;;;;;;5.12;57.40;99119.05;109781;1270;22409;-60
2022/04/12 06:54:46;;;;;;;6.20;2.40;;;;;;;5.17;56.71;99118.52;109777;1270;22222;-60
2022/04/12 06:57:15;;;;;;;9.00;2.50;;;;;;;5.20;56.91;99115.30;109775;1270;22418;-60
2022/04/12 06:59:43;;;;;;;6.90;2.50;;;;;;;5.24;56.86;99120.55;109756;1270;22434;-60
2022/04/12 07:02:11;;;;;;;4.50;2.40;;;;;;;5.29;56.53;99116.33;109726;1271;22449;-60
2022/04/12 07:04:40;;;;;;;8.40;2.40;;;;;;;5.32;56.21;99114.36;109747;1270;22380;-61
2022/04/12 07:07:09;;;;;;;6.70;2.50;;;;;;;5.37;56.67;99111.36;109780;1270;22453;-60
2022/04/12 07:09:37;;;;;;;8.60;2.30;;;;;;;5.42;56.09;99109.83;109751;1270;22726;-61
2022/04/12 07:12:06;;;;;;;3.40;2.10;;;;;;;5.47;55.71;99105.67;109711;1270;22517;-61
2022/04/12 07:14:35;;;;;;;8.60;3.20;;;;;;;5.50;55.81;99102.71;109744;1270;22396;-61
2022/04/12 07:17:05;;;;;;;9.10;2.70;;;;;;;5.55;55.46;99100.39;109761;1270;23249;-60
2022/04/12 07:19:33;;;;;;;9.20;2.10;;;;;;;5.61;55.55;99100.55;109771;1269;22425;-61
2022/04/12 07:22:01;;;;;;;6.20;2.30;;;;;;;5.66;54.73;99106.21;109702;1270;22407;-61
2022/04/12 07:24:30;;;;;;;5.90;2.00;;;;;;;5.70;55.13;99097.83;109729;1270;22463;-60
2022/04/12 07:26:58;;;;;;;9.60;2.70;;;;;;;5.77;55.31;99101.38;109777;1270;22390;-61
2022/04/12 07:29:27;;;;;;;9.00;3.70;;;;;;;5.83;54.68;99102.70;109807;1270;22264;-61
2022/04/12 07:31:57;;;;;;;7.60;3.00;;;;;;;5.89;54.01;99098.95;109772;1270;22404;-60
2022/04/12 07:34:25;;;;;;;8.00;2.80;;;;;;;5.92;54.26;99087.20;109764;1270;22399;-61
2022/04/12 07:36:54;;;;;;;7.20;2.90;;;;;;;5.99;54.09;99089.02;109579;1271;22394;-60
2022/04/12 07:39:23;;;;;;;7.40;3.10;;;;;;;6.07;53.77;99092.41;109114;1270;25300;-63
2022/04/12 07:41:52;;;;;;;12.40;3.20;;;;;;;6.13;53.60;99086.48;109724;1270;23230;-63
2022/04/12 07:44:20;;;;;;;9.60;2.90;;;;;;;6.19;53.83;99080.93;109786;1270;22402;-63
2022/04/12 07:46:49;;;;;;;10.70;3.50;;;;;;;6.28;53.88;99082.89;109653;1271;23444;-64
2022/04/12 07:49:17;;;;;;;10.40;3.60;;;;;;;6.36;53.61;99077.90;109735;1270;22427;-63
2022/04/12 07:51:46;;;;;;;8.10;2.70;;;;;;;6.45;53.19;99073.06;109674;1272;23276;-64
2022/04/12 07:54:16;;;;;;;8.00;2.60;;;;;;;6.54;52.56;99082.23;109722;1270;22588;-64
2022/04/12 07:56:44;;;;;;;8.70;3.00;;;;;;;6.59;52.09;99068.09;109729;1270;23216;-64
2022/04/12 07:59:14;;;;;;;9.60;2.50;;;;;;;6.66;52.33;99073.63;109723;1270;22436;-64
2022/04/12 08:01:42;;;;;;;6.40;2.50;;;;;;;6.73;51.99;99074.42;109756;1269;22516;-64
2022/04/12 08:04:11;;;;;;;5.40;2.60;;;;;;;6.80;52.64;99069.23;109723;1271;22371;-64
2022/04/12 08:06:39;;;;;;;6.40;2.30;;;;;;;6.91;52.41;99073.80;109751;1270;22380;-64
2022/04/12 08:09:09;;;;;;;8.50;3.00;;;;;;;7.01;51.45;99073.33;109733;1270;22425;-64
2022/04/12 08:11:38;;;;;;;10.70;3.70;;;;;;;7.08;51.36;99073.77;109783;1269;22412;-64
2022/04/12 08:14:06;;;;;;;9.10;2.50;;;;;;;7.16;51.04;99083.92;109680;1272;23288;-64
2022/04/12 08:16:35;;;;;;;10.70;4.20;;;;;;;7.25;50.17;99077.86;107201;1270;23655;-60
2022/04/12 08:19:03;;;;;;;17.90;7.20;;;;;;;7.31;50.64;99076.04;109750;1270;23167;-61
2022/04/12 08:21:38;;;;;;;9.40;3.20;;;;;;;7.39;50.31;99085.84;109745;1269;22430;-61
2022/04/12 08:24:08;;;;;;;7.40;3.60;;;;;;;7.48;48.98;99073.30;109696;1270;22225;-61
2022/04/12 08:26:38;;;;;;;17.70;9.20;;;;;;;7.55;49.70;99078.33;109706;1270;22380;-61
2022/04/12 08:29:07;;;;;;;16.20;8.20;;;;;;;7.62;48.44;99084.19;109758;1271;22432;-61
2022/04/12 08:31:35;;;;;;;9.00;3.80;;;;;;;7.66;48.32;99086.83;109748;1270;22472;-60
2022/04/12 08:34:03;;;;;;;10.20;5.30;;;;;;;7.68;47.48;99076.77;109771;1270;22410;-60
2022/04/12 08:36:31;;;;;;;10.70;4.10;;;;;;;7.73;48.04;99086.68;109772;1270;23160;-60
2022/04/12 08:39:00;;;;;;;6.90;1.70;;;;;;;7.83;47.71;99091.73;109690;1270;22514;-61
2022/04/12 08:41:30;;;;;;;4.20;1.90;;;;;;;7.94;46.90;99079.85;109748;1270;22376;-61
2022/04/12 08:43:58;;;;;;;5.00;1.80;;;;;;;8.03;47.13;99082.73;109728;1271;23351;-61
2022/04/12 08:46:28;;;;;;;4.90;1.70;;;;;;;8.11;47.32;99088.73;107372;1270;23966;-60
2022/04/12 08:48:57;;;;;;;6.50;2.10;;;;;;;8.14;47.60;99081.29;109811;1270;22380;-61
2022/04/12 08:51:28;;;;;;;4.60;1.60;;;;;;;8.21;47.65;99081.48;109760;1270;22273;-61
2022/04/12 08:53:57;;;;;;;4.90;1.70;;;;;;;8.31;47.29;99085.96;109723;1270;22451;-61
2022/04/12 08:56:28;;;;;;;5.60;1.70;;;;;;;8.40;47.04;99083.23;109734;1270;22400;-60
2022/04/12 08:58:58;;;;;;;5.60;1.80;;;;;;;8.42;46.92;99078.10;109732;1271;22864;-60
2022/04/12 09:01:43;;;;;;;4.70;1.50;;;;;;;8.41;47.15;99075.44;109748;1270;22430;-61
2022/04/12 09:04:11;;;;;;;7.50;2.50;;;;;;;8.45;47.64;99068.77;109768;1270;22247;-61
2022/04/12 09:06:49;;;;;;;5.50;2.10;;;;;;;8.51;47.22;99066.05;109775;1269;22405;-60
2022/04/12 09:09:20;;;;;;;5.30;1.70;;;;;;;8.55;46.81;99060.40;109719;1270;22501;-60
2022/04/12 09:12:04;;;;;;;3.80;1.80;;;;;;;8.58;47.04;99060.79;109742;1270;23543;-61
2022/04/12 09:14:36;;;;;;;5.70;1.70;;;;;;;8.61;46.27;99066.87;109729;1270;22428;-61
2022/04/12 09:17:12;;;;;;;5.70;2.20;;;;;;;8.62;45.85;99062.10;106282;1270;22557;-60
2022/04/12 09:19:55;;;;;;;2.50;1.20;;;;;;;8.62;46.26;99055.52;109784;1270;22415;-60
2022/04/12 09:22:24;;;;;;;7.80;1.90;;;;;;;8.67;45.43;99056.54;109736;1270;22470;-61
2022/04/12 09:25:00;;;;;;;7.90;1.50;;;;;;;8.69;45.25;99050.86;109729;1270;22486;-61
2022/04/12 09:27:34;;;;;;;4.30;1.80;;;;;;;8.69;44.09;99045.38;109689;1270;22467;-60
2022/04/12 09:30:37;;;;;;;6.20;1.90;;;;;;;8.66;42.84;99047.95;109756;1271;23011;-61
2022/04/12 09:33:05;;;;;;;7.20;1.90;;;;;;;8.61;43.73;99050.79;109661;1270;23640;-61
2022/04/12 09:35:35;;;;;;;5.30;1.80;;;;;;;8.61;42.87;99054.22;109695;1270;22445;-61
2022/04/12 09:38:04;;;;;;;8.70;1.50;;;;;;;8.64;42.52;99052.01;109647;1271;22427;-60
2022/04/12 09:40:32;;;;;;;5.70;2.20;;;;;;;8.69;42.58;99043.89;109626;1270;22537;-60
2022/04/12 09:43:05;;;;;;;6.50;2.00;;;;;;;8.75;42.52;99038.33;109823;1270;23513;-60
2022/04/12 09:45:33;;;;;;;5.70;1.50;;;;;;;8.82;42.29;99047.55;109520;1270;22538;-60
2022/04/12 09:48:30;;;;;;;8.00;1.90;;;;;;;8.80;42.50;99040.92;109740;1270;22472;-60
2022/04/12 09:51:20;;;;;;;4.50;2.10;;;;;;;8.76;41.05;99045.62;109602;1270;22445;-60
2022/04/12 09:53:49;;;;;;;5.00;1.40;;;;;;;8.70;41.19;99052.83;109816;1269;22458;-59
2022/04/12 09:56:18;;;;;;;5.40;1.40;;;;;;;8.63;41.43;99049.95;109725;1270;22496;-59
2022/04/12 09:58:48;;;;;;;3.90;2.20;;;;;;;8.57;41.86;99063.07;109739;1270;23444;-60
2022/04/12 10:01:17;;;;;;;5.60;1.60;;;;;;;8.53;41.62;99053.20;109718;1270;23133;-60
2022/04/12 10:03:53;;;;;;;4.40;1.50;;;;;;;8.53;41.61;99054.98;109773;1270;22498;-60
2022/04/12 10:06:23;;;;;;;9.50;2.50;;;;;;;8.60;41.28;99052.02;109787;1270;22413;-60
2022/04/12 10:08:56;;;;;;;6.40;2.50;;;;;;;8.65;40.79;99054.25;109742;1270;22455;-60
2022/04/12 10:11:45;;;;;;;5.20;2.40;;;;;;;8.65;40.86;99060.02;109769;1269;22390;-60
2022/04/12 10:14:13;;;;;;;6.00;1.50;;;;;;;8.63;40.44;99072.00;109751;1270;23482;-60
2022/04/12 10:17:01;;;;;;;;;;;;;;;8.60;40.32;99062.45;109621;1270;22498;-60
2022/04/12 10:19:32;;;;;;;4.50;1.70;;;;;;;8.58;39.97;99066.02;109714;1271;22511;-60
2022/04/12 10:22:04;;;;;;;4.60;1.80;;;;;;;8.59;39.80;99066.68;109513;1270;22446;-61
2022/04/12 10:24:33;;;;;;;3.70;1.60;;;;;;;8.62;39.99;99059.11;109753;1270;22422;-60
2022/04/12 10:27:02;;;;;;;5.70;1.80;;;;;;;8.65;39.78;99074.14;109659;1269;22572;-60
2022/04/12 10:30:17;;;;;;;7.80;3.10;;;;;;;8.66;40.24;99077.55;109786;1270;23424;-60
2022/04/12 10:33:08;;;;;;;4.30;1.80;;;;;;;8.68;40.68;99079.09;109726;1271;22294;-60
2022/04/12 10:35:49;;;;;;;8.20;3.00;;;;;;;8.73;39.18;99079.65;109715;1271;22223;-60
2022/04/12 10:38:18;;;;;;;8.10;2.20;;;;;;;8.77;39.74;99080.88;109781;1270;22373;-61
2022/04/12 10:40:51;;;;;;;5.40;1.70;;;;;;;8.82;40.13;99073.10;109733;1270;22391;-60
2022/04/12 10:43:39;;;;;;;5.00;1.90;;;;;;;8.87;39.71;99073.02;109778;1270;22264;-60
2022/04/12 10:46:11;;;;;;;9.70;2.30;;;;;;;8.84;39.84;99072.35;109786;1270;22258;-60
2022/04/12 10:48:55;;;;;;;3.50;1.50;;;;;;;8.79;40.05;99074.86;109746;1270;22425;-60
2022/04/12 10:51:38;;;;;;;5.20;1.70;;;;;;;8.76;40.60;99075.21;109728;1271;22391;-60
2022/04/12 10:54:26;;;;;;;5.90;2.60;;;;;;;8.75;40.96;99077.48;109733;1271;22576;-61
2022/04/12 10:57:18;;;;;;;11.50;4.10;;;;;;;8.78;40.38;99071.17;109715;1270;22243;-60
2022/04/12 11:00:08;;;;;;;6.10;2.10;;;;;;;8.81;40.28;99073.56;109771;1270;22789;-60
2022/04/12 11:02:41;;;;;;;4.60;1.60;;;;;;;8.85;40.44;99071.82;109768;1270;22425;-61
2022/04/12 11:05:44;;;;;;;6.30;2.40;;;;;;;8.90;39.87;99074.16;109632;1271;22443;-61
2022/04/12 11:08:15;;;;;;;5.40;1.90;;;;;;;8.91;39.83;99077.64;109067;1279;22481;-61
2022/04/12 11:11:03;;;;;;;8.00;3.00;;;;;;;8.90;39.65;99078.02;109094;1277;22468;-61
2022/04/12 11:13:33;;;;;;;7.30;2.50;;;;;;;8.93;40.17;99076.61;109078;1277;23181;-60
2022/04/12 11:16:08;;;;;;;6.10;2.20;;;;;;;8.99;39.67;99072.21;109066;1279;22409;-61
2022/04/12 11:18:56;;;;;;;5.90;2.10;;;;;;;9.06;39.64;99070.06;109063;1279;22404;-61
2022/04/12 11:21:51;;;;;;;7.40;2.80;;;;;;;9.13;39.57;99083.47;109086;1278;22417;-61
2022/04/12 11:24:21;;;;;;;10.70;5.60;;;;;;;9.17;39.15;99079.11;109039;1280;22465;-60
2022/04/12 11:27:09;;;;;;;8.50;4.40;;;;;;;9.19;39.44;99076.02;109095;1277;22499;-61
2022/04/12 11:29:39;;;;;;;15.00;3.80;;;;;;;9.20;39.56;99081.54;109050;1278;22409;-61
2022/04/12 11:32:09;;;;;;;13.20;3.70;;;;;;;9.19;39.54;99079.34;109080;1278;22432;-61
2022/04/12 11:34:38;;;;;;;6.00;2.10;;;;;;;9.19;39.28;99082.02;109061;1279;22504;-59
2022/04/12 11:37:10;;;;;;;6.50;1.60;;;;;;;9.19;38.68;99082.02;109044;1278;22443;-59
2022/04/12 11:39:41;;;;;;;5.80;2.30;;;;;;;9.19;37.94;99081.25;109063;1279;23183;-61
2022/04/12 11:42:11;;;;;;;4.70;2.00;;;;;;;9.16;38.20;99084.97;109085;1277;22261;-62
2022/04/12 11:44:39;;;;;;;3.20;1.80;;;;;;;9.15;39.18;99085.45;109461;1274;22479;-61
2022/04/12 11:47:08;;;;;;;5.40;1.80;;;;;;;9.17;39.27;99087.59;109719;1271;22394;-61
2022/04/12 11:49:41;;;;;;;6.00;2.20;;;;;;;9.23;39.76;99097.27;109599;1273;23548;-59
2022/04/12 11:52:11;;;;;;;8.40;2.50;;;;;;;9.31;39.12;99110.27;109751;1270;22391;-61
2022/04/12 11:54:40;;;;;;;4.50;2.10;;;;;;;9.35;38.84;99093.92;109608;1271;22453;-61
2022/04/12 11:57:09;;;;;;;5.00;2.20;;;;;;;9.41;39.62;99092.49;106043;1271;24268;-61